sensor_id;sensor_type;location;lat;lon;timestamp;P1;durP1;ratioP1;P2;durP2;ratioP2
41253;SDS011;26987;59.928;30.306;2022-09-28T00:00:16;12.05;;;8.45;;
41253;SDS011;26987;59.928;30.306;2022-09-28T00:02:44;13.23;;;8.07;;
41253;SDS011;26987;59.928;30.306;2022-09-28T00:05:14;19.50;;;7.95;;
41253;SDS011;26987;59.928;30.306;2022-09-28T00:07:42;14.10;;;8.20;;
41253;SDS011;26987;59.928;30.306;2022-09-28T00:10:10;16.83;;;10.10;;
41253;SDS011;26987;59.928;30.306;2022-09-28T00:12:38;12.38;;;9.05;;
41253;SDS011;26987;59.928;30.306;2022-09-28T00:15:06;13.85;;;8.77;;
41253;SDS011;26987;59.928;30.306;2022-09-28T00:17:35;12.45;;;8.57;;
41253;SDS011;26987;59.928;30.306;2022-09-28T00:20:03;13.07;;;8.05;;
41253;SDS011;26987;59.928;30.306;2022-09-28T00:22:33;14.07;;;8.18;;
41253;SDS011;26987;59.928;30.306;2022-09-28T00:25:01;11.95;;;8.70;;
41253;SDS011;26987;59.928;30.306;2022-09-28T00:27:29;13.40;;;8.30;;
41253;SDS011;26987;59.928;30.306;2022-09-28T00:29:56;13.25;;;8.45;;
41253;SDS011;26987;59.928;30.306;2022-09-28T00:32:25;16.95;;;9.38;;
41253;SDS011;26987;59.928;30.306;2022-09-28T00:34:53;12.93;;;8.07;;
41253;SDS011;26987;59.928;30.306;2022-09-28T00:37:21;18.60;;;8.55;;
41253;SDS011;26987;59.928;30.306;2022-09-28T00:39:50;16.83;;;10.15;;
41253;SDS011;26987;59.928;30.306;2022-09-28T00:42:20;17.85;;;8.80;;
41253;SDS011;26987;59.928;30.306;2022-09-28T00:44:50;12.13;;;7.47;;
41253;SDS011;26987;59.928;30.306;2022-09-28T00:47:22;14.75;;;9.25;;
41253;SDS011;26987;59.928;30.306;2022-09-28T00:50:17;20.95;;;9.32;;
41253;SDS011;26987;59.928;30.306;2022-09-28T00:52:52;17.35;;;9.55;;
41253;SDS011;26987;59.928;30.306;2022-09-28T00:55:26;15.80;;;10.55;;
41253;SDS011;26987;59.928;30.306;2022-09-28T00:57:59;15.68;;;9.65;;
41253;SDS011;26987;59.928;30.306;2022-09-28T01:00:30;16.85;;;9.82;;
41253;SDS011;26987;59.928;30.306;2022-09-28T01:02:58;13.73;;;8.93;;
41253;SDS011;26987;59.928;30.306;2022-09-28T01:05:26;15.68;;;9.30;;
41253;SDS011;26987;59.928;30.306;2022-09-28T01:07:54;16.33;;;10.43;;
41253;SDS011;26987;59.928;30.306;2022-09-28T01:10:23;18.17;;;11.45;;
41253;SDS011;26987;59.928;30.306;2022-09-28T01:12:54;16.27;;;11.07;;
41253;SDS011;26987;59.928;30.306;2022-09-28T01:15:22;17.48;;;10.07;;
41253;SDS011;26987;59.928;30.306;2022-09-28T01:17:56;17.60;;;10.70;;
41253;SDS011;26987;59.928;30.306;2022-09-28T01:20:50;13.40;;;10.02;;
41253;SDS011;26987;59.928;30.306;2022-09-28T01:26:39;20.27;;;10.55;;
41253;SDS011;26987;59.928;30.306;2022-09-28T01:29:26;15.43;;;10.77;;
41253;SDS011;26987;59.928;30.306;2022-09-28T01:32:07;14.35;;;11.02;;
41253;SDS011;26987;59.928;30.306;2022-09-28T01:34:43;22.58;;;10.82;;
41253;SDS011;26987;59.928;30.306;2022-09-28T01:37:19;20.42;;;11.48;;
41253;SDS011;26987;59.928;30.306;2022-09-28T01:39:53;16.70;;;10.68;;
41253;SDS011;26987;59.928;30.306;2022-09-28T01:42:26;20.17;;;10.77;;
41253;SDS011;26987;59.928;30.306;2022-09-28T01:44:59;15.80;;;10.65;;
41253;SDS011;26987;59.928;30.306;2022-09-28T01:47:33;17.02;;;10.50;;
41253;SDS011;26987;59.928;30.306;2022-09-28T01:50:05;16.73;;;10.05;;
41253;SDS011;26987;59.928;30.306;2022-09-28T01:52:41;18.25;;;11.10;;
41253;SDS011;26987;59.928;30.306;2022-09-28T01:55:16;17.07;;;10.90;;
41253;SDS011;26987;59.928;30.306;2022-09-28T01:57:54;22.20;;;10.40;;
41253;SDS011;26987;59.928;30.306;2022-09-28T02:00:27;18.27;;;10.18;;
41253;SDS011;26987;59.928;30.306;2022-09-28T02:02:57;16.65;;;10.32;;
41253;SDS011;26987;59.928;30.306;2022-09-28T02:05:38;15.02;;;8.80;;
41253;SDS011;26987;59.928;30.306;2022-09-28T02:08:07;15.70;;;7.95;;
41253;SDS011;26987;59.928;30.306;2022-09-28T02:10:40;14.75;;;8.82;;
41253;SDS011;26987;59.928;30.306;2022-09-28T02:13:14;16.02;;;7.70;;
41253;SDS011;26987;59.928;30.306;2022-09-28T02:18:17;12.38;;;6.72;;
41253;SDS011;26987;59.928;30.306;2022-09-28T02:20:48;17.77;;;7.90;;
41253;SDS011;26987;59.928;30.306;2022-09-28T02:23:22;14.95;;;7.07;;
41253;SDS011;26987;59.928;30.306;2022-09-28T02:25:54;10.55;;;6.07;;
41253;SDS011;26987;59.928;30.306;2022-09-28T02:28:29;10.45;;;5.75;;
41253;SDS011;26987;59.928;30.306;2022-09-28T02:30:57;8.50;;;5.03;;
41253;SDS011;26987;59.928;30.306;2022-09-28T02:33:25;13.57;;;6.20;;
41253;SDS011;26987;59.928;30.306;2022-09-28T02:35:58;11.40;;;5.45;;
41253;SDS011;26987;59.928;30.306;2022-09-28T02:38:30;7.68;;;4.90;;
41253;SDS011;26987;59.928;30.306;2022-09-28T02:41:01;12.07;;;5.63;;
41253;SDS011;26987;59.928;30.306;2022-09-28T02:43:36;8.55;;;5.60;;
41253;SDS011;26987;59.928;30.306;2022-09-28T02:46:20;11.20;;;5.70;;
41253;SDS011;26987;59.928;30.306;2022-09-28T02:49:09;12.43;;;5.85;;
41253;SDS011;26987;59.928;30.306;2022-09-28T02:51:47;8.88;;;5.90;;
41253;SDS011;26987;59.928;30.306;2022-09-28T02:54:29;10.75;;;6.53;;
41253;SDS011;26987;59.928;30.306;2022-09-28T02:57:10;9.88;;;6.50;;
41253;SDS011;26987;59.928;30.306;2022-09-28T02:59:52;10.80;;;6.22;;
41253;SDS011;26987;59.928;30.306;2022-09-28T03:02:31;14.75;;;7.18;;
41253;SDS011;26987;59.928;30.306;2022-09-28T03:05:14;13.37;;;7.00;;
41253;SDS011;26987;59.928;30.306;2022-09-28T03:07:48;8.95;;;5.78;;
41253;SDS011;26987;59.928;30.306;2022-09-28T03:10:24;12.90;;;6.72;;
41253;SDS011;26987;59.928;30.306;2022-09-28T03:13:00;12.95;;;7.00;;
41253;SDS011;26987;59.928;30.306;2022-09-28T03:15:31;14.85;;;8.63;;
41253;SDS011;26987;59.928;30.306;2022-09-28T03:18:00;15.52;;;6.75;;
41253;SDS011;26987;59.928;30.306;2022-09-28T03:20:29;15.27;;;6.80;;
41253;SDS011;26987;59.928;30.306;2022-09-28T03:22:59;18.83;;;8.02;;
41253;SDS011;26987;59.928;30.306;2022-09-28T03:25:27;18.48;;;7.85;;
41253;SDS011;26987;59.928;30.306;2022-09-28T03:27:55;17.13;;;8.63;;
41253;SDS011;26987;59.928;30.306;2022-09-28T03:30:23;17.00;;;7.45;;
41253;SDS011;26987;59.928;30.306;2022-09-28T03:32:56;25.48;;;8.80;;
41253;SDS011;26987;59.928;30.306;2022-09-28T03:35:26;21.15;;;8.85;;
41253;SDS011;26987;59.928;30.306;2022-09-28T03:37:54;20.60;;;7.85;;
41253;SDS011;26987;59.928;30.306;2022-09-28T03:40:25;18.40;;;7.97;;
41253;SDS011;26987;59.928;30.306;2022-09-28T03:42:53;25.15;;;8.18;;
41253;SDS011;26987;59.928;30.306;2022-09-28T03:45:21;20.13;;;8.52;;
41253;SDS011;26987;59.928;30.306;2022-09-28T03:47:50;24.45;;;7.38;;
41253;SDS011;26987;59.928;30.306;2022-09-28T03:50:20;18.50;;;7.32;;
41253;SDS011;26987;59.928;30.306;2022-09-28T03:52:48;15.00;;;7.25;;
41253;SDS011;26987;59.928;30.306;2022-09-28T03:55:16;21.38;;;6.72;;
41253;SDS011;26987;59.928;30.306;2022-09-28T03:57:43;13.65;;;6.80;;
41253;SDS011;26987;59.928;30.306;2022-09-28T04:00:12;16.67;;;6.95;;
41253;SDS011;26987;59.928;30.306;2022-09-28T04:02:41;19.23;;;7.43;;
41253;SDS011;26987;59.928;30.306;2022-09-28T04:05:09;21.88;;;6.65;;
41253;SDS011;26987;59.928;30.306;2022-09-28T04:07:39;15.07;;;6.75;;
41253;SDS011;26987;59.928;30.306;2022-09-28T04:10:07;13.85;;;5.70;;
41253;SDS011;26987;59.928;30.306;2022-09-28T04:12:35;14.85;;;6.30;;
41253;SDS011;26987;59.928;30.306;2022-09-28T04:15:05;12.95;;;5.90;;
41253;SDS011;26987;59.928;30.306;2022-09-28T04:17:33;12.95;;;5.53;;
41253;SDS011;26987;59.928;30.306;2022-09-28T04:20:01;9.52;;;5.32;;
41253;SDS011;26987;59.928;30.306;2022-09-28T04:22:45;11.57;;;4.97;;
41253;SDS011;26987;59.928;30.306;2022-09-28T04:25:13;11.75;;;5.70;;
41253;SDS011;26987;59.928;30.306;2022-09-28T04:27:41;9.63;;;5.10;;
41253;SDS011;26987;59.928;30.306;2022-09-28T04:30:27;11.70;;;5.55;;
41253;SDS011;26987;59.928;30.306;2022-09-28T04:32:55;15.38;;;5.80;;
41253;SDS011;26987;59.928;30.306;2022-09-28T04:35:23;11.00;;;6.07;;
41253;SDS011;26987;59.928;30.306;2022-09-28T04:37:52;11.68;;;6.55;;
41253;SDS011;26987;59.928;30.306;2022-09-28T04:40:20;14.85;;;6.35;;
41253;SDS011;26987;59.928;30.306;2022-09-28T04:42:51;12.98;;;6.13;;
41253;SDS011;26987;59.928;30.306;2022-09-28T04:45:20;9.65;;;5.00;;
41253;SDS011;26987;59.928;30.306;2022-09-28T04:47:49;11.02;;;5.75;;
41253;SDS011;26987;59.928;30.306;2022-09-28T04:50:42;8.60;;;4.90;;
41253;SDS011;26987;59.928;30.306;2022-09-28T04:53:20;9.43;;;5.38;;
41253;SDS011;26987;59.928;30.306;2022-09-28T04:55:57;10.68;;;4.85;;
41253;SDS011;26987;59.928;30.306;2022-09-28T04:58:27;11.60;;;5.00;;
41253;SDS011;26987;59.928;30.306;2022-09-28T05:00:56;8.35;;;4.20;;
41253;SDS011;26987;59.928;30.306;2022-09-28T05:03:45;8.70;;;4.20;;
41253;SDS011;26987;59.928;30.306;2022-09-28T05:06:25;11.05;;;4.90;;
41253;SDS011;26987;59.928;30.306;2022-09-28T05:09:02;12.45;;;4.65;;
41253;SDS011;26987;59.928;30.306;2022-09-28T05:11:30;11.02;;;4.53;;
41253;SDS011;26987;59.928;30.306;2022-09-28T05:13:59;10.90;;;4.65;;
41253;SDS011;26987;59.928;30.306;2022-09-28T05:16:28;9.27;;;4.25;;
41253;SDS011;26987;59.928;30.306;2022-09-28T05:19:22;10.18;;;4.47;;
41253;SDS011;26987;59.928;30.306;2022-09-28T05:21:51;10.75;;;4.65;;
41253;SDS011;26987;59.928;30.306;2022-09-28T05:24:20;8.65;;;4.65;;
41253;SDS011;26987;59.928;30.306;2022-09-28T05:26:50;10.80;;;4.70;;
41253;SDS011;26987;59.928;30.306;2022-09-28T05:29:19;9.75;;;3.88;;
41253;SDS011;26987;59.928;30.306;2022-09-28T05:32:05;11.20;;;4.18;;
41253;SDS011;26987;59.928;30.306;2022-09-28T05:34:45;9.43;;;4.65;;
41253;SDS011;26987;59.928;30.306;2022-09-28T05:37:21;11.02;;;3.33;;
41253;SDS011;26987;59.928;30.306;2022-09-28T05:39:50;7.78;;;3.70;;
41253;SDS011;26987;59.928;30.306;2022-09-28T05:42:21;6.20;;;3.38;;
41253;SDS011;26987;59.928;30.306;2022-09-28T05:44:49;7.13;;;3.03;;
41253;SDS011;26987;59.928;30.306;2022-09-28T05:47:18;8.50;;;3.55;;
41253;SDS011;26987;59.928;30.306;2022-09-28T05:49:46;8.07;;;3.28;;
41253;SDS011;26987;59.928;30.306;2022-09-28T05:52:14;6.72;;;4.00;;
41253;SDS011;26987;59.928;30.306;2022-09-28T05:54:42;7.60;;;3.03;;
41253;SDS011;26987;59.928;30.306;2022-09-28T05:57:11;10.95;;;4.05;;
41253;SDS011;26987;59.928;30.306;2022-09-28T05:59:40;5.47;;;3.20;;
41253;SDS011;26987;59.928;30.306;2022-09-28T06:02:08;4.82;;;3.17;;
41253;SDS011;26987;59.928;30.306;2022-09-28T06:04:37;3.78;;;2.35;;
41253;SDS011;26987;59.928;30.306;2022-09-28T06:07:04;5.50;;;3.20;;
41253;SDS011;26987;59.928;30.306;2022-09-28T06:09:33;5.60;;;3.10;;
41253;SDS011;26987;59.928;30.306;2022-09-28T06:12:01;7.15;;;2.95;;
41253;SDS011;26987;59.928;30.306;2022-09-28T06:14:47;4.10;;;2.80;;
41253;SDS011;26987;59.928;30.306;2022-09-28T06:17:15;6.88;;;3.03;;
41253;SDS011;26987;59.928;30.306;2022-09-28T06:19:48;6.22;;;3.20;;
41253;SDS011;26987;59.928;30.306;2022-09-28T06:22:26;4.35;;;2.80;;
41253;SDS011;26987;59.928;30.306;2022-09-28T06:25:00;3.67;;;2.85;;
41253;SDS011;26987;59.928;30.306;2022-09-28T06:27:28;4.63;;;2.80;;
41253;SDS011;26987;59.928;30.306;2022-09-28T06:29:57;9.70;;;3.20;;
41253;SDS011;26987;59.928;30.306;2022-09-28T06:32:28;6.60;;;3.08;;
41253;SDS011;26987;59.928;30.306;2022-09-28T06:34:56;6.55;;;3.17;;
41253;SDS011;26987;59.928;30.306;2022-09-28T06:37:25;11.80;;;4.45;;
41253;SDS011;26987;59.928;30.306;2022-09-28T06:39:55;15.75;;;5.47;;
41253;SDS011;26987;59.928;30.306;2022-09-28T06:42:23;10.18;;;4.45;;
41253;SDS011;26987;59.928;30.306;2022-09-28T06:45:25;9.55;;;5.05;;
41253;SDS011;26987;59.928;30.306;2022-09-28T06:48:27;11.27;;;4.40;;
41253;SDS011;26987;59.928;30.306;2022-09-28T06:50:56;18.33;;;5.25;;
41253;SDS011;26987;59.928;30.306;2022-09-28T06:53:44;10.15;;;4.88;;
41253;SDS011;26987;59.928;30.306;2022-09-28T06:56:29;11.00;;;4.65;;
41253;SDS011;26987;59.928;30.306;2022-09-28T06:58:57;7.22;;;3.65;;
41253;SDS011;26987;59.928;30.306;2022-09-28T07:01:27;9.13;;;4.13;;
41253;SDS011;26987;59.928;30.306;2022-09-28T07:04:06;9.10;;;4.30;;
41253;SDS011;26987;59.928;30.306;2022-09-28T07:06:52;8.73;;;3.30;;
41253;SDS011;26987;59.928;30.306;2022-09-28T07:09:40;7.60;;;3.35;;
41253;SDS011;26987;59.928;30.306;2022-09-28T07:12:16;5.82;;;3.50;;
41253;SDS011;26987;59.928;30.306;2022-09-28T07:14:52;6.80;;;2.85;;
41253;SDS011;26987;59.928;30.306;2022-09-28T07:17:24;5.38;;;2.80;;
41253;SDS011;26987;59.928;30.306;2022-09-28T07:19:54;4.47;;;2.85;;
41253;SDS011;26987;59.928;30.306;2022-09-28T07:22:23;7.90;;;2.45;;
41253;SDS011;26987;59.928;30.306;2022-09-28T07:24:52;11.07;;;2.55;;
41253;SDS011;26987;59.928;30.306;2022-09-28T07:27:38;3.22;;;1.65;;
41253;SDS011;26987;59.928;30.306;2022-09-28T07:30:15;9.18;;;3.65;;
41253;SDS011;26987;59.928;30.306;2022-09-28T07:33:06;5.90;;;2.42;;
41253;SDS011;26987;59.928;30.306;2022-09-28T07:35:48;3.88;;;1.88;;
41253;SDS011;26987;59.928;30.306;2022-09-28T07:38:17;6.78;;;1.80;;
41253;SDS011;26987;59.928;30.306;2022-09-28T07:40:45;3.42;;;1.75;;
41253;SDS011;26987;59.928;30.306;2022-09-28T07:43:31;4.85;;;2.45;;
41253;SDS011;26987;59.928;30.306;2022-09-28T07:45:59;2.88;;;1.67;;
41253;SDS011;26987;59.928;30.306;2022-09-28T07:48:29;4.35;;;1.83;;
41253;SDS011;26987;59.928;30.306;2022-09-28T07:51:28;2.30;;;1.33;;
41253;SDS011;26987;59.928;30.306;2022-09-28T07:54:17;3.10;;;1.60;;
41253;SDS011;26987;59.928;30.306;2022-09-28T07:56:56;1.25;;;0.70;;
41253;SDS011;26987;59.928;30.306;2022-09-28T07:59:43;4.07;;;1.48;;
41253;SDS011;26987;59.928;30.306;2022-09-28T08:02:44;5.43;;;1.38;;
41253;SDS011;26987;59.928;30.306;2022-09-28T08:05:19;4.13;;;1.27;;
41253;SDS011;26987;59.928;30.306;2022-09-28T08:07:47;2.20;;;1.30;;
41253;SDS011;26987;59.928;30.306;2022-09-28T08:10:16;4.97;;;1.35;;
41253;SDS011;26987;59.928;30.306;2022-09-28T08:13:03;3.35;;;1.20;;
41253;SDS011;26987;59.928;30.306;2022-09-28T08:15:41;4.78;;;1.40;;
41253;SDS011;26987;59.928;30.306;2022-09-28T08:18:22;2.22;;;1.20;;
41253;SDS011;26987;59.928;30.306;2022-09-28T08:20:52;3.63;;;1.23;;
41253;SDS011;26987;59.928;30.306;2022-09-28T08:23:37;1.65;;;1.13;;
41253;SDS011;26987;59.928;30.306;2022-09-28T08:26:06;4.07;;;1.45;;
41253;SDS011;26987;59.928;30.306;2022-09-28T08:28:34;3.40;;;1.35;;
41253;SDS011;26987;59.928;30.306;2022-09-28T08:31:20;2.13;;;1.35;;
41253;SDS011;26987;59.928;30.306;2022-09-28T08:34:07;4.88;;;1.25;;
41253;SDS011;26987;59.928;30.306;2022-09-28T08:37:04;3.80;;;1.15;;
41253;SDS011;26987;59.928;30.306;2022-09-28T08:39:41;4.07;;;1.13;;
41253;SDS011;26987;59.928;30.306;2022-09-28T08:42:23;2.35;;;1.23;;
41253;SDS011;26987;59.928;30.306;2022-09-28T08:45:20;2.55;;;1.42;;
41253;SDS011;26987;59.928;30.306;2022-09-28T08:48:19;2.35;;;1.20;;
41253;SDS011;26987;59.928;30.306;2022-09-28T08:51:22;3.33;;;1.40;;
41253;SDS011;26987;59.928;30.306;2022-09-28T08:54:07;2.47;;;1.20;;
41253;SDS011;26987;59.928;30.306;2022-09-28T08:56:52;1.98;;;0.90;;
41253;SDS011;26987;59.928;30.306;2022-09-28T08:59:25;2.80;;;1.30;;
41253;SDS011;26987;59.928;30.306;2022-09-28T09:02:08;2.03;;;1.13;;
41253;SDS011;26987;59.928;30.306;2022-09-28T09:04:41;3.08;;;1.10;;
41253;SDS011;26987;59.928;30.306;2022-09-28T09:07:37;2.28;;;0.93;;
41253;SDS011;26987;59.928;30.306;2022-09-28T09:16:27;1.38;;;0.80;;
41253;SDS011;26987;59.928;30.306;2022-09-28T09:19:25;4.60;;;0.77;;
41253;SDS011;26987;59.928;30.306;2022-09-28T09:22:12;6.93;;;1.08;;
41253;SDS011;26987;59.928;30.306;2022-09-28T09:24:47;1.48;;;0.75;;
41253;SDS011;26987;59.928;30.306;2022-09-28T09:30:07;2.75;;;1.15;;
41253;SDS011;26987;59.928;30.306;2022-09-28T09:32:53;5.03;;;1.08;;
41253;SDS011;26987;59.928;30.306;2022-09-28T09:35:57;12.45;;;1.15;;
41253;SDS011;26987;59.928;30.306;2022-09-28T09:39:02;1.00;;;0.80;;
41253;SDS011;26987;59.928;30.306;2022-09-28T09:42:00;6.75;;;0.82;;
41253;SDS011;26987;59.928;30.306;2022-09-28T09:45:20;2.78;;;1.00;;
41253;SDS011;26987;59.928;30.306;2022-09-28T09:48:10;2.40;;;0.80;;
41253;SDS011;26987;59.928;30.306;2022-09-28T09:50:44;1.35;;;0.77;;
41253;SDS011;26987;59.928;30.306;2022-09-28T09:53:17;2.92;;;1.10;;
41253;SDS011;26987;59.928;30.306;2022-09-28T09:55:50;1.17;;;0.60;;
41253;SDS011;26987;59.928;30.306;2022-09-28T09:58:36;2.28;;;0.68;;
41253;SDS011;26987;59.928;30.306;2022-09-28T10:01:17;1.65;;;0.77;;
41253;SDS011;26987;59.928;30.306;2022-09-28T10:06:43;3.45;;;1.23;;
41253;SDS011;26987;59.928;30.306;2022-09-28T10:09:13;2.05;;;0.93;;
41253;SDS011;26987;59.928;30.306;2022-09-28T10:11:47;5.43;;;1.45;;
41253;SDS011;26987;59.928;30.306;2022-09-28T10:14:17;1.90;;;1.08;;
41253;SDS011;26987;59.928;30.306;2022-09-28T10:19:55;2.95;;;0.65;;
41253;SDS011;26987;59.928;30.306;2022-09-28T10:22:42;5.60;;;1.10;;
41253;SDS011;26987;59.928;30.306;2022-09-28T10:25:15;2.67;;;1.00;;
41253;SDS011;26987;59.928;30.306;2022-09-28T10:27:44;2.85;;;1.05;;
41253;SDS011;26987;59.928;30.306;2022-09-28T10:30:19;8.15;;;1.27;;
41253;SDS011;26987;59.928;30.306;2022-09-28T10:32:51;1.83;;;1.02;;
41253;SDS011;26987;59.928;30.306;2022-09-28T10:35:24;0.93;;;0.60;;
41253;SDS011;26987;59.928;30.306;2022-09-28T10:37:57;1.08;;;0.80;;
41253;SDS011;26987;59.928;30.306;2022-09-28T10:40:49;1.38;;;0.98;;
41253;SDS011;26987;59.928;30.306;2022-09-28T10:43:28;0.85;;;0.63;;
41253;SDS011;26987;59.928;30.306;2022-09-28T10:46:02;4.57;;;1.02;;
41253;SDS011;26987;59.928;30.306;2022-09-28T10:48:37;1.92;;;0.90;;
41253;SDS011;26987;59.928;30.306;2022-09-28T10:51:16;2.20;;;0.82;;
41253;SDS011;26987;59.928;30.306;2022-09-28T10:53:56;3.65;;;0.95;;
41253;SDS011;26987;59.928;30.306;2022-09-28T10:56:44;3.17;;;1.17;;
41253;SDS011;26987;59.928;30.306;2022-09-28T10:59:24;5.70;;;1.00;;
41253;SDS011;26987;59.928;30.306;2022-09-28T11:02:26;1.23;;;0.73;;
41253;SDS011;26987;59.928;30.306;2022-09-28T11:05:04;1.85;;;0.93;;
41253;SDS011;26987;59.928;30.306;2022-09-28T11:07:43;4.05;;;0.70;;
41253;SDS011;26987;59.928;30.306;2022-09-28T11:10:19;1.83;;;1.10;;
41253;SDS011;26987;59.928;30.306;2022-09-28T11:12:49;2.63;;;1.00;;
41253;SDS011;26987;59.928;30.306;2022-09-28T11:15:21;2.65;;;1.02;;
41253;SDS011;26987;59.928;30.306;2022-09-28T11:17:53;2.92;;;0.85;;
41253;SDS011;26987;59.928;30.306;2022-09-28T11:20:31;2.13;;;0.95;;
41253;SDS011;26987;59.928;30.306;2022-09-28T11:23:17;3.42;;;1.13;;
41253;SDS011;26987;59.928;30.306;2022-09-28T11:25:56;1.83;;;0.88;;
41253;SDS011;26987;59.928;30.306;2022-09-28T11:28:27;2.10;;;1.20;;
41253;SDS011;26987;59.928;30.306;2022-09-28T11:31:00;3.65;;;1.52;;
41253;SDS011;26987;59.928;30.306;2022-09-28T11:33:32;1.30;;;0.90;;
41253;SDS011;26987;59.928;30.306;2022-09-28T11:36:26;1.63;;;0.73;;
41253;SDS011;26987;59.928;30.306;2022-09-28T11:39:07;1.85;;;0.68;;
41253;SDS011;26987;59.928;30.306;2022-09-28T11:41:52;1.27;;;0.55;;
41253;SDS011;26987;59.928;30.306;2022-09-28T11:44:36;4.22;;;0.95;;
41253;SDS011;26987;59.928;30.306;2022-09-28T11:47:28;2.40;;;0.80;;
41253;SDS011;26987;59.928;30.306;2022-09-28T11:50:06;7.18;;;1.83;;
41253;SDS011;26987;59.928;30.306;2022-09-28T11:52:47;4.63;;;0.90;;
41253;SDS011;26987;59.928;30.306;2022-09-28T11:55:23;2.05;;;0.73;;
41253;SDS011;26987;59.928;30.306;2022-09-28T11:57:59;2.60;;;1.05;;
41253;SDS011;26987;59.928;30.306;2022-09-28T12:00:33;4.47;;;1.10;;
41253;SDS011;26987;59.928;30.306;2022-09-28T12:03:05;4.15;;;0.95;;
41253;SDS011;26987;59.928;30.306;2022-09-28T12:05:42;3.88;;;1.20;;
41253;SDS011;26987;59.928;30.306;2022-09-28T12:08:18;3.40;;;1.42;;
41253;SDS011;26987;59.928;30.306;2022-09-28T12:11:05;8.57;;;1.83;;
41253;SDS011;26987;59.928;30.306;2022-09-28T12:14:00;3.53;;;1.30;;
41253;SDS011;26987;59.928;30.306;2022-09-28T12:16:39;3.55;;;0.85;;
41253;SDS011;26987;59.928;30.306;2022-09-28T12:19:14;2.55;;;1.10;;
41253;SDS011;26987;59.928;30.306;2022-09-28T12:21:46;7.45;;;1.60;;
41253;SDS011;26987;59.928;30.306;2022-09-28T12:24:18;1.52;;;0.98;;
41253;SDS011;26987;59.928;30.306;2022-09-28T12:26:53;3.95;;;0.98;;
41253;SDS011;26987;59.928;30.306;2022-09-28T12:29:27;2.60;;;0.90;;
41253;SDS011;26987;59.928;30.306;2022-09-28T12:32:01;1.98;;;0.95;;
41253;SDS011;26987;59.928;30.306;2022-09-28T12:34:36;7.60;;;1.75;;
41253;SDS011;26987;59.928;30.306;2022-09-28T12:37:07;1.52;;;0.70;;
41253;SDS011;26987;59.928;30.306;2022-09-28T12:39:52;3.67;;;1.23;;
41253;SDS011;26987;59.928;30.306;2022-09-28T12:42:46;3.53;;;0.90;;
41253;SDS011;26987;59.928;30.306;2022-09-28T12:45:29;7.40;;;1.20;;
41253;SDS011;26987;59.928;30.306;2022-09-28T12:48:29;4.53;;;1.33;;
41253;SDS011;26987;59.928;30.306;2022-09-28T12:51:13;5.72;;;1.10;;
41253;SDS011;26987;59.928;30.306;2022-09-28T12:53:59;1.37;;;1.00;;
41253;SDS011;26987;59.928;30.306;2022-09-28T12:56:39;3.60;;;0.93;;
41253;SDS011;26987;59.928;30.306;2022-09-28T12:59:14;4.25;;;1.15;;
41253;SDS011;26987;59.928;30.306;2022-09-28T13:01:56;3.00;;;1.20;;
41253;SDS011;26987;59.928;30.306;2022-09-28T13:04:44;2.35;;;1.08;;
41253;SDS011;26987;59.928;30.306;2022-09-28T13:07:41;4.68;;;1.30;;
41253;SDS011;26987;59.928;30.306;2022-09-28T13:10:17;6.82;;;1.15;;
41253;SDS011;26987;59.928;30.306;2022-09-28T13:13:02;2.92;;;1.30;;
41253;SDS011;26987;59.928;30.306;2022-09-28T13:15:51;4.03;;;1.50;;
41253;SDS011;26987;59.928;30.306;2022-09-28T13:18:25;4.30;;;1.52;;
41253;SDS011;26987;59.928;30.306;2022-09-28T13:21:07;3.83;;;1.90;;
41253;SDS011;26987;59.928;30.306;2022-09-28T13:23:40;4.03;;;1.80;;
41253;SDS011;26987;59.928;30.306;2022-09-28T13:26:12;5.15;;;2.20;;
41253;SDS011;26987;59.928;30.306;2022-09-28T13:28:46;4.78;;;2.20;;
41253;SDS011;26987;59.928;30.306;2022-09-28T13:31:17;5.53;;;1.90;;
41253;SDS011;26987;59.928;30.306;2022-09-28T13:33:48;4.15;;;2.10;;
41253;SDS011;26987;59.928;30.306;2022-09-28T13:36:35;3.85;;;2.28;;
41253;SDS011;26987;59.928;30.306;2022-09-28T13:42:09;4.72;;;2.53;;
41253;SDS011;26987;59.928;30.306;2022-09-28T13:44:55;4.32;;;2.20;;
41253;SDS011;26987;59.928;30.306;2022-09-28T13:47:41;7.18;;;2.47;;
41253;SDS011;26987;59.928;30.306;2022-09-28T13:50:26;4.45;;;2.50;;
41253;SDS011;26987;59.928;30.306;2022-09-28T13:53:06;6.60;;;3.65;;
41253;SDS011;26987;59.928;30.306;2022-09-28T13:55:48;3.60;;;2.30;;
41253;SDS011;26987;59.928;30.306;2022-09-28T13:58:23;5.22;;;3.00;;
41253;SDS011;26987;59.928;30.306;2022-09-28T14:00:57;4.20;;;2.70;;
41253;SDS011;26987;59.928;30.306;2022-09-28T14:03:40;4.50;;;2.53;;
41253;SDS011;26987;59.928;30.306;2022-09-28T14:06:27;3.08;;;2.13;;
41253;SDS011;26987;59.928;30.306;2022-09-28T14:09:07;4.82;;;2.67;;
41253;SDS011;26987;59.928;30.306;2022-09-28T14:11:54;8.05;;;3.50;;
41253;SDS011;26987;59.928;30.306;2022-09-28T14:20:17;8.85;;;2.80;;
41253;SDS011;26987;59.928;30.306;2022-09-28T14:23:09;4.82;;;3.80;;
41253;SDS011;26987;59.928;30.306;2022-09-28T14:26:04;6.63;;;3.40;;
41253;SDS011;26987;59.928;30.306;2022-09-28T14:28:55;6.85;;;3.05;;
41253;SDS011;26987;59.928;30.306;2022-09-28T14:31:32;10.25;;;3.70;;
41253;SDS011;26987;59.928;30.306;2022-09-28T14:34:00;6.70;;;3.30;;
41253;SDS011;26987;59.928;30.306;2022-09-28T14:36:33;6.35;;;3.30;;
41253;SDS011;26987;59.928;30.306;2022-09-28T14:39:21;6.93;;;3.30;;
41253;SDS011;26987;59.928;30.306;2022-09-28T14:42:12;4.88;;;2.60;;
41253;SDS011;26987;59.928;30.306;2022-09-28T14:50:47;7.43;;;2.63;;
41253;SDS011;26987;59.928;30.306;2022-09-28T14:53:22;5.28;;;3.00;;
41253;SDS011;26987;59.928;30.306;2022-09-28T14:55:52;5.82;;;3.75;;
41253;SDS011;26987;59.928;30.306;2022-09-28T14:58:24;4.45;;;2.85;;
41253;SDS011;26987;59.928;30.306;2022-09-28T15:00:57;5.35;;;2.22;;
41253;SDS011;26987;59.928;30.306;2022-09-28T15:03:29;4.30;;;2.45;;
41253;SDS011;26987;59.928;30.306;2022-09-28T15:05:59;4.60;;;2.45;;
41253;SDS011;26987;59.928;30.306;2022-09-28T15:08:36;3.50;;;1.98;;
41253;SDS011;26987;59.928;30.306;2022-09-28T15:11:05;2.65;;;2.08;;
41253;SDS011;26987;59.928;30.306;2022-09-28T15:13:37;4.40;;;2.45;;
41253;SDS011;26987;59.928;30.306;2022-09-28T15:16:06;4.07;;;2.50;;
41253;SDS011;26987;59.928;30.306;2022-09-28T15:18:40;3.85;;;2.28;;
41253;SDS011;26987;59.928;30.306;2022-09-28T15:21:29;5.15;;;3.33;;
41253;SDS011;26987;59.928;30.306;2022-09-28T15:24:01;6.78;;;2.47;;
41253;SDS011;26987;59.928;30.306;2022-09-28T15:26:33;4.93;;;2.80;;
41253;SDS011;26987;59.928;30.306;2022-09-28T15:29:01;5.78;;;2.45;;
41253;SDS011;26987;59.928;30.306;2022-09-28T15:31:42;4.53;;;3.00;;
41253;SDS011;26987;59.928;30.306;2022-09-28T15:34:10;4.82;;;2.42;;
41253;SDS011;26987;59.928;30.306;2022-09-28T15:37:10;3.97;;;2.67;;
41253;SDS011;26987;59.928;30.306;2022-09-28T15:39:40;3.50;;;2.53;;
41253;SDS011;26987;59.928;30.306;2022-09-28T15:42:08;6.28;;;2.78;;
41253;SDS011;26987;59.928;30.306;2022-09-28T15:44:36;5.88;;;3.85;;
41253;SDS011;26987;59.928;30.306;2022-09-28T15:47:12;7.43;;;2.97;;
41253;SDS011;26987;59.928;30.306;2022-09-28T15:49:44;5.03;;;3.10;;
41253;SDS011;26987;59.928;30.306;2022-09-28T15:52:31;13.32;;;3.40;;
41253;SDS011;26987;59.928;30.306;2022-09-28T15:55:16;5.45;;;3.95;;
41253;SDS011;26987;59.928;30.306;2022-09-28T15:57:47;5.30;;;3.10;;